createdAt,value
2023-02-07T00:01:17.005Z,11.00
2023-02-07T00:03:45.611Z,7.50
2023-02-07T00:06:20.172Z,8.90
2023-02-07T00:08:47.974Z,7.07
2023-02-07T00:11:20.380Z,9.33
2023-02-07T00:13:50.426Z,7.23
2023-02-07T00:16:18.556Z,8.87
2023-02-07T00:18:46.091Z,9.27
2023-02-07T00:21:19.365Z,10.33
2023-02-07T00:23:47.414Z,10.33
2023-02-07T00:26:15.764Z,7.90
2023-02-07T00:28:45.720Z,9.83
2023-02-07T00:31:22.334Z,10.30
2023-02-07T00:33:51.433Z,10.07
2023-02-07T00:36:21.593Z,10.00
2023-02-07T00:38:49.629Z,11.53
2023-02-07T00:41:20.105Z,6.37
2023-02-07T00:43:48.111Z,9.17
2023-02-07T00:46:16.063Z,9.60
2023-02-07T00:48:43.708Z,6.47
2023-02-07T00:51:12.298Z,9.43
2023-02-07T00:53:40.091Z,9.77
2023-02-07T00:56:08.810Z,10.53
2023-02-07T00:58:36.282Z,5.90
2023-02-07T01:01:03.628Z,6.83
2023-02-07T01:03:33.519Z,6.30
2023-02-07T01:06:00.644Z,9.00
2023-02-07T01:08:27.748Z,9.67
2023-02-07T01:10:54.894Z,8.77
2023-02-07T01:13:22.626Z,8.43
2023-02-07T01:15:50.503Z,7.23
2023-02-07T01:18:17.711Z,8.67
2023-02-07T01:20:45.323Z,9.83
2023-02-07T01:23:13.864Z,8.47
2023-02-07T01:25:43.894Z,8.77
2023-02-07T01:28:11.147Z,9.43
2023-02-07T01:30:42.622Z,8.30
2023-02-07T01:33:10.055Z,7.63
2023-02-07T01:35:39.112Z,8.63
2023-02-07T01:38:06.393Z,9.13
2023-02-07T01:40:38.237Z,8.23
2023-02-07T01:43:06.938Z,8.50
2023-02-07T01:45:39.737Z,7.67
2023-02-07T01:48:34.730Z,7.93
2023-02-07T01:51:08.077Z,7.80
2023-02-07T01:53:38.895Z,8.57
2023-02-07T01:56:15.375Z,6.30
2023-02-07T01:58:47.793Z,9.07
2023-02-07T02:01:20.921Z,9.00
2023-02-07T02:03:51.035Z,9.57
2023-02-07T02:06:19.899Z,6.63
2023-02-07T02:08:47.259Z,8.50
2023-02-07T02:11:51.761Z,9.13
2023-02-07T02:14:55.926Z,7.30
2023-02-07T02:17:29.653Z,9.97
2023-02-07T02:20:29.188Z,10.13
2023-02-07T02:23:17.422Z,5.50
2023-02-07T02:26:24.612Z,6.80
2023-02-07T02:29:25.051Z,7.97
2023-02-07T02:31:55.574Z,6.87
2023-02-07T02:34:39.571Z,8.93
2023-02-07T02:37:32.326Z,8.37
2023-02-07T02:40:05.867Z,5.27
2023-02-07T02:42:59.671Z,11.03
2023-02-07T02:45:36.966Z,12.77
2023-02-07T02:48:06.918Z,13.18
2023-02-07T02:50:35.640Z,10.87
2023-02-07T02:53:02.962Z,7.90
2023-02-07T02:55:50.919Z,7.57
2023-02-07T02:58:35.228Z,6.97
2023-02-07T03:01:21.418Z,4.67
2023-02-07T03:04:03.823Z,8.37
2023-02-07T03:06:59.711Z,8.67
2023-02-07T03:09:30.566Z,7.80
2023-02-07T03:12:26.087Z,8.03
2023-02-07T03:15:16.423Z,9.00
2023-02-07T03:17:58.089Z,7.30
2023-02-07T03:20:37.682Z,9.80
2023-02-07T03:23:07.914Z,9.27
2023-02-07T03:25:38.410Z,9.17
2023-02-07T03:28:16.538Z,9.77
2023-02-07T03:30:49.769Z,8.97
2023-02-07T03:33:19.452Z,9.90
2023-02-07T03:36:14.368Z,9.97
2023-02-07T03:38:42.139Z,10.00
2023-02-07T03:41:21.206Z,10.40
2023-02-07T03:43:49.626Z,9.50
2023-02-07T03:46:18.162Z,9.37
2023-02-07T03:48:45.195Z,9.17
2023-02-07T03:51:12.530Z,10.00
2023-02-07T03:53:39.492Z,9.80
2023-02-07T03:56:06.679Z,10.50
2023-02-07T03:58:33.699Z,11.17
2023-02-07T04:01:00.759Z,8.90
2023-02-07T04:03:27.886Z,9.70
2023-02-07T04:05:55.030Z,9.37
2023-02-07T04:08:24.174Z,6.80
2023-02-07T04:11:01.626Z,8.83
2023-02-07T04:13:29.151Z,9.50
2023-02-07T04:15:56.783Z,8.83
2023-02-07T04:18:26.497Z,9.40
2023-02-07T04:21:01.495Z,9.00
2023-02-07T04:23:28.554Z,9.53
2023-02-07T04:25:56.399Z,10.57
2023-02-07T04:28:23.548Z,10.73
2023-02-07T04:30:53.003Z,8.97
2023-02-07T04:33:21.459Z,9.10
2023-02-07T04:35:59.530Z,9.43
2023-02-07T04:38:27.748Z,10.00
2023-02-07T04:41:03.698Z,9.33
2023-02-07T04:43:32.295Z,10.07
2023-02-07T04:45:59.356Z,10.47
2023-02-07T04:48:26.658Z,9.50
2023-02-07T04:50:54.076Z,9.87
2023-02-07T04:53:21.157Z,9.50
2023-02-07T04:55:52.714Z,10.27
2023-02-07T04:58:21.138Z,9.40
2023-02-07T05:00:48.304Z,10.30
2023-02-07T05:03:17.691Z,10.17
2023-02-07T05:05:45.872Z,7.83
2023-02-07T05:08:13.688Z,6.63
2023-02-07T05:10:41.884Z,8.37
2023-02-07T05:13:09.434Z,8.70
2023-02-07T05:15:38.543Z,8.93
2023-02-07T05:18:06.237Z,9.50
2023-02-07T05:20:33.283Z,9.70
2023-02-07T05:23:00.370Z,5.90
2023-02-07T05:25:27.366Z,9.37
2023-02-07T05:28:01.676Z,8.77
2023-02-07T05:30:28.713Z,8.77
2023-02-07T05:33:04.582Z,11.00
2023-02-07T05:35:33.868Z,10.97
2023-02-07T05:38:01.296Z,10.80
2023-02-07T05:40:28.564Z,9.83
2023-02-07T05:42:55.594Z,10.97
2023-02-07T05:45:22.669Z,9.90
2023-02-07T05:47:49.694Z,10.53
2023-02-07T05:50:16.842Z,11.47
2023-02-07T05:52:44.523Z,10.83
2023-02-07T05:55:13.498Z,10.03
2023-02-07T05:57:41.985Z,9.10
2023-02-07T06:00:12.680Z,8.20
2023-02-07T06:02:41.589Z,14.43
2023-02-07T06:05:11.227Z,6.27
2023-02-07T06:07:39.664Z,6.73
2023-02-07T06:10:09.447Z,13.40
2023-02-07T06:12:36.495Z,12.73
2023-02-07T06:15:04.092Z,12.90
2023-02-07T06:17:31.241Z,13.43
2023-02-07T06:19:58.262Z,11.90
2023-02-07T06:22:25.488Z,12.50
2023-02-07T06:24:52.603Z,10.63
2023-02-07T06:27:19.724Z,6.60
2023-02-07T06:29:46.778Z,11.57
2023-02-07T06:32:13.805Z,9.10
2023-02-07T06:34:41.591Z,10.70
2023-02-07T06:37:08.614Z,10.70
2023-02-07T06:39:35.619Z,9.37
2023-02-07T06:42:06.291Z,8.90
2023-02-07T06:44:33.280Z,10.87
2023-02-07T06:47:00.828Z,11.50
2023-02-07T06:49:27.834Z,11.97
2023-02-07T06:51:55.156Z,11.40
2023-02-07T06:54:22.175Z,10.97
2023-02-07T06:56:51.624Z,11.53
2023-02-07T06:59:19.200Z,9.87
2023-02-07T07:01:49.393Z,9.87
2023-02-07T07:04:18.573Z,9.87
2023-02-07T07:06:48.621Z,8.77
2023-02-07T07:09:15.911Z,9.80
2023-02-07T07:11:44.278Z,11.10
2023-02-07T07:14:12.746Z,11.50
2023-02-07T07:16:42.305Z,11.73
2023-02-07T07:19:09.588Z,10.97
2023-02-07T07:21:37.331Z,11.80
2023-02-07T07:24:07.156Z,11.90
2023-02-07T07:26:48.434Z,11.67
2023-02-07T07:29:17.105Z,11.20
2023-02-07T07:31:44.481Z,10.67
2023-02-07T07:34:11.688Z,12.33
2023-02-07T07:36:38.911Z,9.00
2023-02-07T07:39:07.434Z,10.43
2023-02-07T07:41:34.522Z,10.30
2023-02-07T07:44:01.580Z,9.70
2023-02-07T07:46:28.821Z,10.23
2023-02-07T07:48:55.947Z,11.37
2023-02-07T07:51:23.552Z,11.30
2023-02-07T07:53:51.115Z,9.03
2023-02-07T07:56:18.095Z,9.50
2023-02-07T07:58:45.522Z,11.80
2023-02-07T08:01:12.805Z,11.40
2023-02-07T08:03:39.835Z,11.17
2023-02-07T08:06:08.658Z,11.00
2023-02-07T08:08:35.592Z,12.50
2023-02-07T08:11:05.861Z,10.60
2023-02-07T08:13:38.006Z,10.80
2023-02-07T08:16:11.177Z,10.60
2023-02-07T08:18:39.291Z,11.10
2023-02-07T08:21:08.798Z,10.90
2023-02-07T08:23:37.566Z,10.73
2023-02-07T08:26:05.244Z,9.57
2023-02-07T08:28:32.393Z,9.93
2023-02-07T08:31:04.161Z,8.63
2023-02-07T08:33:32.106Z,10.07
2023-02-07T08:36:00.788Z,10.77
2023-02-07T08:38:28.019Z,9.93
2023-02-07T08:40:55.053Z,9.60
2023-02-07T08:43:22.073Z,10.90
2023-02-07T08:45:49.687Z,10.90
2023-02-07T08:48:17.066Z,11.53
2023-02-07T08:50:44.122Z,10.73
2023-02-07T08:53:11.469Z,10.67
2023-02-07T08:55:41.071Z,10.27
2023-02-07T08:58:08.484Z,10.83
2023-02-07T09:00:35.840Z,9.30
2023-02-07T09:03:04.479Z,10.77
2023-02-07T09:05:35.628Z,10.93
2023-02-07T09:08:03.098Z,10.53
2023-02-07T09:10:31.210Z,9.53
2023-02-07T09:12:59.907Z,9.83
2023-02-07T09:15:27.083Z,10.33
2023-02-07T09:17:54.647Z,9.00
2023-02-07T09:20:21.719Z,10.97
2023-02-07T09:23:11.097Z,10.00
2023-02-07T09:25:40.436Z,9.43
2023-02-07T09:28:08.911Z,10.37
2023-02-07T09:30:36.595Z,10.70
2023-02-07T09:33:04.000Z,8.37
2023-02-07T09:35:31.665Z,8.50
2023-02-07T09:38:01.346Z,10.70
2023-02-07T09:40:28.906Z,7.47
2023-02-07T09:43:02.325Z,8.30
2023-02-07T09:45:34.943Z,9.27
2023-02-07T09:48:11.208Z,7.80
2023-02-07T09:51:00.896Z,8.80
2023-02-07T09:53:49.729Z,7.33
2023-02-07T09:56:19.565Z,8.07
2023-02-07T09:59:16.168Z,6.67
2023-02-07T10:01:47.737Z,4.83
2023-02-07T10:04:23.370Z,9.17
2023-02-07T10:06:55.281Z,7.10
2023-02-07T10:09:29.348Z,9.30
2023-02-07T10:12:17.652Z,8.10
2023-02-07T10:14:53.738Z,7.50
2023-02-07T10:17:31.404Z,7.93
2023-02-07T10:20:19.731Z,7.00
2023-02-07T10:23:20.674Z,7.13
2023-02-07T10:26:04.115Z,8.80
2023-02-07T10:29:04.301Z,7.87
2023-02-07T10:31:33.865Z,7.50
2023-02-07T10:37:32.378Z,5.73
2023-02-07T10:40:24.599Z,6.97
2023-02-07T10:43:07.400Z,7.37
2023-02-07T10:45:35.257Z,4.40
2023-02-07T10:48:02.641Z,6.73
2023-02-07T10:50:32.760Z,7.93
2023-02-07T10:53:00.039Z,8.43
2023-02-07T10:55:46.620Z,7.63
2023-02-07T10:58:23.861Z,8.30
2023-02-07T11:00:55.491Z,8.90
2023-02-07T11:03:24.865Z,7.17
2023-02-07T11:06:02.904Z,4.40
2023-02-07T11:08:35.380Z,5.20
2023-02-07T11:11:39.737Z,7.87
2023-02-07T11:14:18.220Z,7.33
2023-02-07T11:16:46.068Z,5.80
2023-02-07T11:19:20.866Z,6.00
2023-02-07T11:21:50.736Z,8.07
2023-02-07T11:24:17.696Z,7.03
2023-02-07T11:26:56.549Z,8.43
2023-02-07T11:29:25.476Z,7.80
2023-02-07T11:31:55.596Z,7.97
2023-02-07T11:34:28.993Z,7.97
2023-02-07T11:37:11.240Z,3.50
2023-02-07T11:39:44.251Z,6.20
2023-02-07T11:42:15.099Z,7.67
2023-02-07T11:44:43.915Z,7.87
2023-02-07T11:47:18.194Z,9.63
2023-02-07T11:50:00.056Z,8.27
2023-02-07T11:52:28.096Z,6.80
2023-02-07T11:55:01.158Z,6.63
2023-02-07T11:57:33.621Z,7.27
2023-02-07T12:00:23.297Z,6.77
2023-02-07T12:03:03.185Z,6.70
2023-02-07T12:05:38.394Z,6.70
2023-02-07T12:08:21.029Z,6.90
2023-02-07T12:10:53.144Z,5.80
2023-02-07T12:13:46.777Z,3.03
2023-02-07T12:16:23.261Z,6.23
2023-02-07T12:19:10.730Z,6.18
2023-02-07T12:21:57.414Z,7.47
2023-02-07T12:24:33.367Z,6.17
2023-02-07T12:27:12.279Z,6.73
2023-02-07T12:30:17.944Z,5.70
2023-02-07T12:32:58.298Z,5.43
2023-02-07T12:35:41.099Z,6.50
2023-02-07T12:38:31.148Z,6.22
2023-02-07T12:41:12.874Z,6.47
2023-02-07T12:43:48.870Z,6.43
2023-02-07T12:46:56.489Z,5.87
2023-02-07T12:49:52.489Z,6.70
2023-02-07T12:52:40.197Z,6.32
2023-02-07T12:55:39.421Z,5.40
2023-02-07T12:58:35.862Z,6.43
2023-02-07T13:01:29.357Z,5.57
2023-02-07T13:04:45.527Z,5.47
2023-02-07T13:07:42.119Z,5.97
2023-02-07T13:10:31.958Z,10.70
2023-02-07T13:13:20.669Z,18.50
2023-02-07T13:15:56.527Z,8.00
2023-02-07T13:18:46.365Z,5.87
2023-02-07T13:21:31.496Z,4.53
2023-02-07T13:24:01.826Z,4.57
2023-02-07T13:26:29.544Z,3.70
2023-02-07T13:29:02.617Z,5.57
2023-02-07T13:31:45.648Z,6.13
2023-02-07T13:34:18.484Z,5.80
2023-02-07T13:36:53.450Z,5.10
2023-02-07T13:39:48.736Z,7.10
2023-02-07T13:42:54.676Z,7.17
2023-02-07T13:45:37.657Z,4.87
2023-02-07T13:48:26.642Z,5.57
2023-02-07T13:51:18.154Z,6.03
2023-02-07T13:54:08.539Z,6.27
2023-02-07T13:56:55.106Z,5.47
2023-02-07T13:59:41.338Z,6.88
2023-02-07T14:02:22.929Z,5.97
2023-02-07T14:04:56.142Z,6.43
2023-02-07T14:07:34.179Z,6.27
2023-02-07T14:10:02.427Z,5.77
2023-02-07T14:12:34.622Z,5.93
2023-02-07T14:15:34.988Z,7.43
2023-02-07T14:18:05.998Z,6.20
2023-02-07T14:20:43.418Z,6.70
2023-02-07T14:23:19.979Z,7.83
2023-02-07T14:25:47.556Z,4.38
2023-02-07T14:28:33.945Z,6.97
2023-02-07T14:31:11.684Z,7.63
2023-02-07T14:33:39.455Z,7.60
2023-02-07T14:36:19.845Z,9.50
2023-02-07T14:39:10.684Z,5.93
2023-02-07T14:41:41.428Z,6.53
2023-02-07T14:44:32.897Z,7.23
2023-02-07T14:47:02.484Z,7.80
2023-02-07T14:49:44.444Z,6.83
2023-02-07T14:52:33.336Z,5.67
2023-02-07T14:55:40.113Z,6.30
2023-02-07T14:58:34.051Z,5.47
2023-02-07T15:01:01.096Z,7.77
2023-02-07T15:03:33.959Z,6.53
2023-02-07T15:06:04.682Z,6.97
2023-02-07T15:08:35.034Z,4.07
2023-02-07T15:11:11.913Z,3.83
2023-02-07T15:13:48.134Z,5.80
2023-02-07T15:16:15.437Z,4.57
2023-02-07T15:18:55.200Z,7.10
2023-02-07T15:21:39.550Z,7.33
2023-02-07T15:24:16.586Z,6.43
2023-02-07T15:26:50.021Z,6.25
2023-02-07T15:29:26.486Z,4.90
2023-02-07T15:31:54.382Z,5.17
2023-02-07T15:34:24.928Z,6.50
2023-02-07T15:36:53.816Z,6.60
2023-02-07T15:39:24.260Z,8.10
2023-02-07T15:41:56.733Z,8.10
2023-02-07T15:44:29.519Z,7.77
2023-02-07T15:47:02.932Z,10.60
2023-02-07T15:49:42.322Z,10.97
2023-02-07T15:52:33.006Z,13.57
2023-02-07T15:55:06.128Z,13.90
2023-02-07T15:57:41.905Z,14.23
2023-02-07T16:00:14.578Z,16.87
2023-02-07T16:02:56.224Z,17.70
2023-02-07T16:05:32.359Z,16.07
2023-02-07T16:08:01.821Z,14.85
2023-02-07T16:10:44.448Z,11.17
2023-02-07T16:13:22.930Z,9.10
2023-02-07T16:15:59.693Z,11.83
2023-02-07T16:18:48.437Z,14.35
2023-02-07T16:21:28.055Z,13.87
2023-02-07T16:24:14.073Z,18.53
2023-02-07T16:26:42.195Z,15.67
2023-02-07T16:29:23.535Z,19.13
2023-02-07T16:31:52.715Z,22.60
2023-02-07T16:34:21.215Z,16.57
2023-02-07T16:36:50.992Z,18.37
2023-02-07T16:39:19.046Z,7.27
2023-02-07T16:41:55.124Z,9.03
2023-02-07T16:44:26.501Z,10.83
2023-02-07T16:46:53.737Z,17.63
2023-02-07T16:49:22.871Z,17.97
2023-02-07T16:51:50.410Z,17.83
2023-02-07T16:54:19.945Z,14.00
2023-02-07T16:56:50.859Z,13.20
2023-02-07T16:59:23.508Z,15.00
2023-02-07T17:01:53.268Z,13.60
2023-02-07T17:04:20.878Z,12.97
2023-02-07T17:06:49.261Z,14.07
2023-02-07T17:09:19.261Z,12.10
2023-02-07T17:11:47.761Z,12.83
2023-02-07T17:14:15.134Z,14.30
2023-02-07T17:16:42.325Z,14.80
2023-02-07T17:19:18.866Z,13.33
2023-02-07T17:21:47.479Z,13.18
2023-02-07T17:24:14.479Z,13.53
2023-02-07T17:26:46.431Z,14.83
2023-02-07T17:29:15.278Z,12.67
2023-02-07T17:31:42.900Z,14.23
2023-02-07T17:34:10.357Z,14.30
2023-02-07T17:36:40.293Z,16.33
2023-02-07T17:39:10.776Z,16.17
2023-02-07T17:41:38.783Z,18.70
2023-02-07T17:44:06.131Z,20.90
2023-02-07T17:46:33.687Z,21.30
2023-02-07T17:49:01.389Z,23.87
2023-02-07T17:51:29.439Z,20.43
2023-02-07T17:53:57.353Z,20.47
2023-02-07T17:56:30.458Z,16.90
2023-02-07T17:59:03.092Z,15.60
2023-02-07T18:01:34.335Z,14.17
2023-02-07T18:04:02.713Z,14.87
2023-02-07T18:06:30.934Z,15.27
2023-02-07T18:09:01.225Z,14.70
2023-02-07T18:11:28.396Z,13.50
2023-02-07T18:13:57.408Z,15.07
2023-02-07T18:16:26.455Z,15.33
2023-02-07T18:18:55.737Z,15.13
2023-02-07T18:21:23.875Z,14.70
2023-02-07T18:23:53.608Z,13.87
2023-02-07T18:26:21.513Z,13.70
2023-02-07T18:28:49.125Z,15.57
2023-02-07T18:31:22.789Z,23.63
2023-02-07T18:33:51.864Z,37.27
2023-02-07T18:36:21.482Z,25.97
2023-02-07T18:38:49.208Z,21.87
2023-02-07T18:41:23.631Z,23.70
2023-02-07T18:43:51.888Z,20.20
2023-02-07T18:46:20.712Z,27.23
2023-02-07T18:48:51.620Z,27.57
2023-02-07T18:51:19.737Z,36.33
2023-02-07T18:53:47.202Z,40.40
2023-02-07T18:56:23.852Z,43.73
2023-02-07T18:58:56.936Z,39.92
2023-02-07T19:01:26.505Z,39.27
2023-02-07T19:03:55.345Z,37.70
2023-02-07T19:06:27.176Z,35.80
2023-02-07T19:08:54.537Z,26.77
2023-02-07T19:11:21.510Z,33.43
2023-02-07T19:13:48.866Z,30.23
2023-02-07T19:16:19.200Z,32.50
2023-02-07T19:18:47.172Z,32.40
2023-02-07T19:21:17.866Z,31.93
2023-02-07T19:23:44.960Z,37.97
2023-02-07T19:26:12.118Z,44.63
2023-02-07T19:28:39.482Z,32.10
2023-02-07T19:31:09.220Z,30.47
2023-02-07T19:33:36.830Z,30.37
2023-02-07T19:36:09.937Z,32.03
2023-02-07T19:38:40.314Z,26.77
2023-02-07T19:41:10.192Z,30.17
2023-02-07T19:43:37.847Z,29.00
2023-02-07T19:46:05.284Z,32.90
2023-02-07T19:48:37.378Z,27.57
2023-02-07T19:51:10.530Z,32.43
2023-02-07T19:53:37.959Z,44.17
2023-02-07T19:56:13.606Z,68.63
2023-02-07T19:58:43.510Z,61.03
2023-02-07T20:01:11.588Z,56.90
2023-02-07T20:03:39.977Z,67.10
2023-02-07T20:06:13.262Z,48.23
2023-02-07T20:08:41.221Z,43.57
2023-02-07T20:11:11.004Z,38.30
2023-02-07T20:13:44.188Z,37.03
2023-02-07T20:16:13.971Z,37.33
2023-02-07T20:18:43.444Z,37.50
2023-02-07T20:21:14.208Z,29.90
2023-02-07T20:23:47.013Z,36.17
2023-02-07T20:26:31.466Z,32.97
2023-02-07T20:29:03.410Z,27.23
2023-02-07T20:31:32.301Z,28.70
2023-02-07T20:34:03.150Z,56.37
2023-02-07T20:36:31.445Z,68.80
2023-02-07T20:39:00.325Z,64.07
2023-02-07T20:41:29.537Z,54.70
2023-02-07T20:43:58.843Z,46.33
2023-02-07T20:46:30.081Z,43.97
2023-02-07T20:48:59.580Z,48.37
2023-02-07T20:51:28.312Z,44.87
2023-02-07T20:54:00.601Z,54.17
2023-02-07T20:56:28.720Z,54.17
2023-02-07T20:58:58.148Z,59.33
2023-02-07T21:01:28.382Z,41.37
2023-02-07T21:03:59.247Z,45.10
2023-02-07T21:06:27.357Z,49.80
2023-02-07T21:09:00.887Z,51.83
2023-02-07T21:11:40.407Z,49.23
2023-02-07T21:14:10.861Z,42.27
2023-02-07T21:16:38.162Z,31.93
2023-02-07T21:19:05.273Z,49.03
2023-02-07T21:21:32.494Z,53.77
2023-02-07T21:24:02.548Z,53.47
2023-02-07T21:26:30.037Z,53.43
2023-02-07T21:29:01.183Z,50.43
2023-02-07T21:31:29.527Z,56.90
2023-02-07T21:33:57.606Z,61.30
2023-02-07T21:36:30.554Z,65.03
2023-02-07T21:39:00.446Z,66.33
2023-02-07T21:41:29.650Z,62.03
2023-02-07T21:43:58.887Z,65.90
2023-02-07T21:46:29.110Z,64.87
2023-02-07T21:49:01.783Z,62.63
2023-02-07T21:51:30.891Z,62.50
2023-02-07T21:53:58.433Z,60.93
2023-02-07T21:56:27.691Z,58.07
2023-02-07T21:59:05.769Z,54.40
2023-02-07T22:01:34.238Z,54.60
2023-02-07T22:04:03.289Z,56.87
2023-02-07T22:06:31.431Z,54.03
2023-02-07T22:09:00.595Z,49.40
2023-02-07T22:11:30.264Z,46.97
2023-02-07T22:13:57.917Z,45.93
2023-02-07T22:16:26.825Z,44.07
2023-02-07T22:18:55.202Z,42.50
2023-02-07T22:21:25.242Z,43.93
2023-02-07T22:23:53.315Z,40.73
2023-02-07T22:26:22.106Z,42.27
2023-02-07T22:28:49.602Z,40.93
2023-02-07T22:31:22.396Z,41.93
2023-02-07T22:33:50.871Z,41.37
2023-02-07T22:36:30.150Z,38.10
2023-02-07T22:38:59.448Z,38.93
2023-02-07T22:41:27.425Z,63.90
2023-02-07T22:43:54.946Z,56.57
2023-02-07T22:46:24.628Z,49.30
2023-02-07T22:48:52.650Z,47.83
2023-02-07T22:51:26.576Z,44.13
2023-02-07T22:53:58.684Z,45.50
2023-02-07T22:56:26.499Z,43.80
2023-02-07T22:58:54.580Z,44.13
2023-02-07T23:01:28.986Z,44.70
2023-02-07T23:03:56.679Z,45.33
2023-02-07T23:06:25.699Z,44.50
2023-02-07T23:08:54.190Z,40.40
2023-02-07T23:11:23.977Z,33.23
2023-02-07T23:13:53.048Z,31.07
2023-02-07T23:16:25.878Z,32.67
2023-02-07T23:18:58.397Z,31.30
2023-02-07T23:21:26.689Z,26.50
2023-02-07T23:23:54.439Z,33.13
2023-02-07T23:26:26.287Z,28.23
2023-02-07T23:28:53.665Z,28.60
2023-02-07T23:31:22.728Z,27.03
2023-02-07T23:33:50.223Z,28.20
2023-02-07T23:36:18.036Z,27.70
2023-02-07T23:38:46.557Z,30.17
2023-02-07T23:41:13.669Z,30.83
2023-02-07T23:43:43.587Z,31.20
2023-02-07T23:46:13.330Z,50.70
2023-02-07T23:48:42.875Z,42.63
2023-02-07T23:51:11.458Z,37.70
2023-02-07T23:53:38.514Z,36.30
2023-02-07T23:56:06.574Z,25.90
2023-02-07T23:58:33.976Z,31.57
